createdAt,value
2023-06-30T00:01:28.230Z,99421.38
2023-06-30T00:05:31.630Z,99417.19
2023-06-30T00:09:35.500Z,99416.66
2023-06-30T00:13:38.794Z,99408.28
2023-06-30T00:17:43.806Z,99409.66
2023-06-30T00:21:49.681Z,99407.69
2023-06-30T00:25:52.823Z,99410.63
2023-06-30T00:29:55.643Z,99405.34
2023-06-30T00:34:00.580Z,99401.69
2023-06-30T00:38:04.027Z,99407.53
2023-06-30T00:42:07.905Z,99406.56
2023-06-30T00:46:15.957Z,99398.41
2023-06-30T00:50:21.988Z,99393.38
2023-06-30T00:54:26.435Z,99387.50
2023-06-30T00:58:30.710Z,99381.47
2023-06-30T01:02:36.757Z,99378.66
2023-06-30T01:06:49.256Z,99370.84
2023-06-30T01:10:54.538Z,99366.53
2023-06-30T01:14:58.987Z,99371.53
2023-06-30T01:19:09.761Z,99374.47
2023-06-30T01:23:19.633Z,99377.41
2023-06-30T01:27:23.611Z,99378.25
2023-06-30T01:31:28.808Z,99379.88
2023-06-30T01:35:34.284Z,99380.00
2023-06-30T01:39:39.252Z,99378.47
2023-06-30T01:43:42.708Z,99372.84
2023-06-30T01:47:46.218Z,99369.19
2023-06-30T01:51:48.810Z,99371.28
2023-06-30T01:55:55.651Z,99370.25
2023-06-30T01:59:58.923Z,99375.56
2023-06-30T02:04:02.183Z,99365.47
2023-06-30T02:08:05.572Z,99368.91
2023-06-30T02:12:13.185Z,99370.84
2023-06-30T02:16:16.252Z,99366.34
2023-06-30T02:20:20.551Z,99367.88
2023-06-30T02:24:23.519Z,99363.72
2023-06-30T02:28:29.225Z,99371.38
2023-06-30T02:32:31.858Z,99364.16
2023-06-30T02:36:37.111Z,99359.56
2023-06-30T02:40:40.503Z,99359.28
2023-06-30T02:44:45.439Z,99359.00
2023-06-30T02:48:49.032Z,99349.16
2023-06-30T02:52:52.362Z,99350.78
2023-06-30T02:56:55.298Z,99346.81
2023-06-30T03:00:59.813Z,99353.25
2023-06-30T03:05:02.901Z,99352.00
2023-06-30T03:09:10.671Z,99345.94
2023-06-30T03:13:13.652Z,99360.59
2023-06-30T03:17:18.218Z,99355.97
2023-06-30T03:21:21.220Z,99353.19
2023-06-30T03:25:24.214Z,99352.34
2023-06-30T03:29:27.323Z,99354.75
2023-06-30T03:33:31.515Z,99362.16
2023-06-30T03:37:34.301Z,99356.41
2023-06-30T03:41:37.564Z,99355.81
2023-06-30T03:45:45.061Z,99350.22
2023-06-30T03:49:49.625Z,99351.44
2023-06-30T03:53:52.576Z,99345.22
2023-06-30T03:57:56.085Z,99349.44
2023-06-30T04:01:59.428Z,99346.41
2023-06-30T04:06:04.435Z,99353.59
2023-06-30T04:10:08.436Z,99354.44
2023-06-30T04:14:11.347Z,99352.59
2023-06-30T04:18:14.386Z,99355.59
2023-06-30T04:22:18.696Z,99352.75
2023-06-30T04:26:21.928Z,99361.63
2023-06-30T04:30:25.020Z,99367.59
2023-06-30T04:34:28.159Z,99371.72
2023-06-30T04:38:33.345Z,99372.50
2023-06-30T04:42:36.586Z,99367.28
2023-06-30T04:46:39.622Z,99370.91
2023-06-30T04:50:44.816Z,99371.00
2023-06-30T04:54:50.067Z,99371.25
2023-06-30T04:58:53.477Z,99376.09
2023-06-30T05:02:57.741Z,99368.84
2023-06-30T05:07:01.233Z,99377.13
2023-06-30T05:11:07.706Z,99373.16
2023-06-30T05:15:11.893Z,99370.22
2023-06-30T05:19:14.968Z,99374.97
2023-06-30T05:23:18.379Z,99365.56
2023-06-30T05:27:22.941Z,99376.47
2023-06-30T05:31:26.380Z,99382.13
2023-06-30T05:35:29.402Z,99383.03
2023-06-30T05:39:32.468Z,99378.97
2023-06-30T05:43:41.655Z,99377.34
2023-06-30T05:47:45.065Z,99380.22
2023-06-30T05:51:48.512Z,99382.69
2023-06-30T05:55:51.915Z,99376.03
2023-06-30T05:59:56.485Z,99381.66
2023-06-30T06:03:59.996Z,99386.31
2023-06-30T06:08:03.670Z,99378.69
2023-06-30T06:12:08.032Z,99375.88
2023-06-30T06:16:12.343Z,99373.38
2023-06-30T06:20:15.430Z,99382.97
2023-06-30T06:24:19.037Z,99381.38
2023-06-30T06:28:22.171Z,99388.94
2023-06-30T06:32:26.727Z,99382.84
2023-06-30T06:36:29.719Z,99381.69
2023-06-30T06:40:34.247Z,99390.50
2023-06-30T06:44:38.348Z,99379.00
2023-06-30T06:48:44.256Z,99387.03
2023-06-30T06:52:47.563Z,99389.06
2023-06-30T06:56:53.376Z,99385.22
2023-06-30T07:00:57.113Z,99380.72
2023-06-30T07:05:01.682Z,99386.97
2023-06-30T07:09:04.772Z,99382.56
2023-06-30T07:13:08.850Z,99374.41
2023-06-30T07:17:12.240Z,99385.75
2023-06-30T07:21:16.974Z,99378.03
2023-06-30T07:25:20.307Z,99376.38
2023-06-30T07:29:23.362Z,99376.41
2023-06-30T07:33:26.524Z,99375.16
2023-06-30T07:37:33.138Z,99371.72
2023-06-30T07:41:36.769Z,99367.28
2023-06-30T07:45:41.738Z,99360.53
2023-06-30T07:49:45.288Z,99363.25
2023-06-30T07:53:49.638Z,99361.41
2023-06-30T07:57:53.126Z,99359.56
2023-06-30T08:01:57.483Z,99356.00
2023-06-30T08:06:01.076Z,99353.56
2023-06-30T08:10:06.483Z,99349.06
2023-06-30T08:14:09.690Z,99337.72
2023-06-30T08:18:14.391Z,99340.88
2023-06-30T08:22:35.316Z,99328.03
2023-06-30T08:26:39.854Z,99331.34
2023-06-30T08:30:43.643Z,99337.81
2023-06-30T08:34:46.628Z,99333.91
2023-06-30T08:38:49.611Z,99334.84
2023-06-30T08:42:55.219Z,99334.38
2023-06-30T08:47:03.223Z,99330.34
2023-06-30T08:51:06.625Z,99320.66
2023-06-30T08:55:12.737Z,99327.78
2023-06-30T08:59:17.076Z,99312.22
2023-06-30T09:03:24.312Z,99309.13
2023-06-30T09:07:30.573Z,99298.72
2023-06-30T09:11:35.502Z,99305.09
2023-06-30T09:15:42.422Z,99302.28
2023-06-30T09:19:45.623Z,99304.28
2023-06-30T09:23:49.024Z,99301.22
2023-06-30T09:27:53.231Z,99301.03
2023-06-30T09:32:03.596Z,99298.81
2023-06-30T09:36:07.246Z,99302.34
2023-06-30T09:40:14.256Z,99303.03
2023-06-30T09:44:23.663Z,99293.72
2023-06-30T09:48:32.435Z,99298.00
2023-06-30T09:52:35.329Z,99286.97
2023-06-30T09:56:42.932Z,99285.38
2023-06-30T10:00:47.085Z,99281.72
2023-06-30T10:04:51.635Z,99287.56
2023-06-30T10:08:58.936Z,99283.91
2023-06-30T10:13:02.085Z,99279.09
2023-06-30T10:17:06.606Z,99269.75
2023-06-30T10:21:11.309Z,99271.88
2023-06-30T10:25:19.563Z,99265.09
2023-06-30T10:29:23.757Z,99274.88
2023-06-30T10:33:27.385Z,99262.09
2023-06-30T10:37:32.169Z,99263.38
2023-06-30T10:41:47.454Z,99258.94
2023-06-30T10:46:09.042Z,99247.13
2023-06-30T10:50:15.450Z,99253.09
2023-06-30T10:54:27.601Z,99238.03
2023-06-30T10:58:31.155Z,99240.19
2023-06-30T11:02:35.388Z,99236.47
2023-06-30T11:06:38.677Z,99239.16
2023-06-30T11:10:47.494Z,99236.19
2023-06-30T11:14:56.368Z,99223.81
2023-06-30T11:19:02.137Z,99232.16
2023-06-30T11:23:07.351Z,99224.19
2023-06-30T11:27:11.750Z,99213.00
2023-06-30T11:31:14.954Z,99219.38
2023-06-30T11:35:20.115Z,99207.38
2023-06-30T11:39:23.157Z,99201.03
2023-06-30T11:43:34.232Z,99210.47
2023-06-30T11:47:37.638Z,99200.91
2023-06-30T11:51:41.308Z,99196.63
2023-06-30T11:55:46.310Z,99199.56
2023-06-30T11:59:51.731Z,99193.44
2023-06-30T12:04:01.252Z,99197.69
2023-06-30T12:08:04.869Z,99181.66
2023-06-30T12:12:09.151Z,99177.66
2023-06-30T12:16:16.346Z,99181.41
2023-06-30T12:20:25.679Z,99173.19
2023-06-30T12:24:34.368Z,99178.91
2023-06-30T12:28:37.688Z,99170.19
2023-06-30T12:32:43.135Z,99171.75
2023-06-30T12:36:48.006Z,99159.91
2023-06-30T12:41:03.571Z,99177.59
2023-06-30T12:45:11.768Z,99174.97
2023-06-30T12:49:19.568Z,99170.72
2023-06-30T12:53:25.141Z,99162.56
2023-06-30T12:57:28.325Z,99176.94
2023-06-30T13:01:31.630Z,99169.59
2023-06-30T13:05:36.306Z,99172.16
2023-06-30T13:09:40.429Z,99175.31
2023-06-30T13:13:44.154Z,99168.53
2023-06-30T13:17:47.706Z,99167.44
2023-06-30T13:21:52.407Z,99163.53
2023-06-30T13:25:55.855Z,99153.19
2023-06-30T13:29:58.950Z,99151.72
2023-06-30T13:34:01.999Z,99139.03
2023-06-30T13:38:11.000Z,99145.03
2023-06-30T13:42:14.223Z,99132.28
2023-06-30T13:46:17.049Z,99138.88
2023-06-30T13:50:26.311Z,99128.63
2023-06-30T13:54:32.336Z,99117.97
2023-06-30T13:58:35.471Z,99120.56
2023-06-30T14:02:39.169Z,99116.81
2023-06-30T14:06:43.082Z,99108.88
2023-06-30T14:10:47.993Z,99099.56
2023-06-30T14:14:51.154Z,99098.38
2023-06-30T14:18:54.532Z,99097.09
2023-06-30T14:22:57.528Z,99093.06
2023-06-30T14:27:02.316Z,99089.94
2023-06-30T14:31:06.029Z,99085.38
2023-06-30T14:35:09.781Z,99075.63
2023-06-30T14:39:13.376Z,99073.34
2023-06-30T14:43:24.975Z,99068.81
2023-06-30T14:47:28.484Z,99063.91
2023-06-30T14:51:32.150Z,99054.84
2023-06-30T14:55:37.179Z,99054.13
2023-06-30T14:59:42.572Z,99049.16
2023-06-30T15:03:45.601Z,99042.16
2023-06-30T15:07:54.034Z,99043.56
2023-06-30T15:11:57.119Z,99038.84
2023-06-30T15:16:01.919Z,99035.13
2023-06-30T15:20:05.699Z,99045.13
2023-06-30T15:24:08.952Z,99046.56
2023-06-30T15:28:11.981Z,99039.34
2023-06-30T15:32:16.518Z,99031.31
2023-06-30T15:36:20.437Z,99029.38
2023-06-30T15:40:24.584Z,99027.63
2023-06-30T15:44:28.378Z,99018.50
2023-06-30T15:48:33.328Z,99028.44
2023-06-30T15:52:37.668Z,99019.53
2023-06-30T15:56:40.727Z,99020.63
2023-06-30T16:00:43.634Z,99007.75
2023-06-30T16:04:48.297Z,99013.66
2023-06-30T16:08:51.638Z,99015.66
2023-06-30T16:12:55.377Z,99008.34
2023-06-30T16:16:58.558Z,99015.38
2023-06-30T16:21:03.190Z,99009.41
2023-06-30T16:25:07.057Z,99002.19
2023-06-30T16:29:10.226Z,99007.16
2023-06-30T16:33:13.394Z,98994.19
2023-06-30T16:37:18.070Z,98999.72
2023-06-30T16:41:21.152Z,98990.03
2023-06-30T16:45:25.091Z,98990.91
2023-06-30T16:49:30.658Z,98988.66
2023-06-30T16:53:35.301Z,98984.94
2023-06-30T16:57:39.329Z,98973.16
2023-06-30T17:01:43.642Z,98987.63
2023-06-30T17:05:47.103Z,98987.50
2023-06-30T17:09:51.962Z,98986.13
2023-06-30T17:13:55.804Z,98983.34
2023-06-30T17:17:59.139Z,98986.16
2023-06-30T17:22:02.460Z,98981.47
2023-06-30T17:26:07.844Z,98987.59
2023-06-30T17:30:12.581Z,98994.13
2023-06-30T17:34:15.553Z,98988.56
2023-06-30T17:38:20.405Z,98990.06
2023-06-30T17:42:24.699Z,98987.41
2023-06-30T17:46:27.875Z,98989.47
2023-06-30T17:50:30.835Z,98998.59
2023-06-30T17:54:34.196Z,98998.22
2023-06-30T17:58:38.768Z,99001.34
2023-06-30T18:02:41.799Z,99009.25
2023-06-30T18:07:02.740Z,99013.81
2023-06-30T18:11:09.396Z,99005.75
2023-06-30T18:15:14.791Z,99008.66
2023-06-30T18:19:19.819Z,99005.56
2023-06-30T18:23:22.434Z,99008.03
2023-06-30T18:27:25.678Z,99000.13
2023-06-30T18:31:30.065Z,98998.88
2023-06-30T18:35:33.410Z,99005.09
2023-06-30T18:39:36.556Z,99015.44
2023-06-30T18:43:40.516Z,99015.44
2023-06-30T18:47:46.673Z,99025.34
2023-06-30T18:51:51.175Z,99032.59
2023-06-30T18:55:54.057Z,99036.47
2023-06-30T18:59:57.231Z,99038.69
2023-06-30T19:04:02.023Z,99048.97
2023-06-30T19:08:05.596Z,99040.28
2023-06-30T19:12:09.137Z,99048.09
2023-06-30T19:16:13.091Z,99052.47
2023-06-30T19:20:18.227Z,99060.97
2023-06-30T19:24:20.998Z,99061.56
2023-06-30T19:28:24.312Z,99063.41
2023-06-30T19:32:27.430Z,99066.53
2023-06-30T19:36:33.851Z,99078.69
2023-06-30T19:40:36.950Z,99095.00
2023-06-30T19:44:46.873Z,99090.69
2023-06-30T19:48:49.950Z,99097.22
2023-06-30T19:52:54.657Z,99086.75
2023-06-30T19:56:57.906Z,99083.09
2023-06-30T20:01:00.882Z,99085.06
2023-06-30T20:05:04.777Z,99079.28
2023-06-30T20:09:10.397Z,99071.72
2023-06-30T20:13:13.182Z,99066.16
2023-06-30T20:17:16.131Z,99064.94
2023-06-30T20:21:19.149Z,99059.50
2023-06-30T20:25:24.887Z,99056.25
2023-06-30T20:29:28.248Z,99067.53
2023-06-30T20:33:31.513Z,99079.44
2023-06-30T20:37:34.541Z,99081.28
2023-06-30T20:41:41.237Z,99077.94
2023-06-30T20:45:44.288Z,99082.00
2023-06-30T20:49:47.526Z,99075.00
2023-06-30T20:53:50.520Z,99063.53
2023-06-30T20:57:55.286Z,99059.56
2023-06-30T21:01:58.509Z,99060.31
2023-06-30T21:06:01.920Z,99070.34
2023-06-30T21:10:05.716Z,99060.84
2023-06-30T21:14:10.451Z,99071.38
2023-06-30T21:18:13.471Z,99069.72
2023-06-30T21:22:16.925Z,99075.91
2023-06-30T21:26:20.080Z,99089.19
2023-06-30T21:30:24.388Z,99094.63
2023-06-30T21:34:26.847Z,99094.34
2023-06-30T21:38:30.398Z,99101.97
2023-06-30T21:42:33.578Z,99099.59
2023-06-30T21:46:37.597Z,99096.25
2023-06-30T21:50:41.032Z,99093.34
2023-06-30T21:54:48.495Z,99088.88
2023-06-30T21:58:53.832Z,99089.78
2023-06-30T22:02:58.643Z,99089.78
2023-06-30T22:07:01.724Z,99086.94
2023-06-30T22:11:04.724Z,99084.78
2023-06-30T22:15:08.775Z,99081.09
2023-06-30T22:19:13.756Z,99080.13
2023-06-30T22:23:17.003Z,99080.97
2023-06-30T22:27:20.397Z,99074.47
2023-06-30T22:31:23.828Z,99072.16
2023-06-30T22:35:28.681Z,99081.66
2023-06-30T22:39:31.967Z,99075.47
2023-06-30T22:43:35.108Z,99069.97
2023-06-30T22:47:37.998Z,99071.13
2023-06-30T22:51:42.643Z,99068.47
2023-06-30T22:55:45.692Z,99070.66
2023-06-30T22:59:49.405Z,99058.47
2023-06-30T23:03:52.661Z,99068.03
2023-06-30T23:08:11.234Z,99067.38
2023-06-30T23:12:14.321Z,99069.88
2023-06-30T23:16:17.697Z,99067.25
2023-06-30T23:20:23.321Z,99066.41
2023-06-30T23:24:27.542Z,99050.19
2023-06-30T23:28:30.407Z,99048.88
2023-06-30T23:32:33.410Z,99045.72
2023-06-30T23:36:36.536Z,99030.69
2023-06-30T23:40:44.873Z,99033.53
2023-06-30T23:44:48.238Z,99032.06
2023-06-30T23:48:53.441Z,99038.91
2023-06-30T23:52:56.828Z,99044.44
2023-06-30T23:57:01.516Z,99037.91
